Portada
METAR-TAF:

METAR-TAF

Aeroports :

Jabalpur, Índia

latitud: 23-10-54N, longitud: 80-03-31E, altitud: 495 m

Observació

L'informe es va fer fa 33 minuts, a les 12:30 UTC
Vent 6 kt del Nord/Nord-Est
Temperatura 22°C
Humitat 50%
Pressió 1015 hPa
Visibilitat: 3000 m
Núvols disperses a una alçada de 10000 ft
calitja

METAR: VAJB 021230Z 02006KT 3000 HZ SCT100 22/11 Q1015

Hora: 18:33 (13:03 UTC)

Pronòstic

L'informe es va fer fa 2 hores i 3 minuts, a les 11:00 UTC
Pronòstic vàlid del 02 a les 12 UTC al 02 a les 21 UTC
Vent 5 kt del Nord/Nord-Est
Visibilitat: 3000 m
Núvols disperses a una alçada de 10000 ft
calitja
Evolucionant progressivament
l' 02 a les 16 UTC al 02 a les 18 UTC
Vent 5 kt del Nord/Nord-Est
Visibilitat: 2500 m
Núvols disperses a una alçada de 10000 ft
calitja, boirina

TAF: VAJB 021100Z 0212/0221 02005KT 3000 HZ SCT100 BECMG 0216/0218 02005KT 2500 HZ BR SCT100

Observacions i pronòstics meteorològics de més de 4000 aeroports (METAR i TAF).

Les estacions disponibles són els punts grocs i vermells al mapa.

Posi el ratolí al punt desitjat per veure el nom de l'estació.

Feu clic per veure les observacions i els pronòstics meteorològics.

Per canviar el mapa: feu clic els botons verds amb una creu de color negre per apropar; al botó verd amb un guió per allunyar la imatge; o en les fletxes verdes per a mapes adjacents.


METAR-TAF: